sensor_id;sensor_type;location;lat;lon;timestamp;P1;durP1;ratioP1;P2;durP2;ratioP2
75342;SDS011;63936;51.006;13.764;2023-04-08T00:00:02;15;;;8;;
75342;SDS011;63936;51.006;13.764;2023-04-08T00:02:04;15;;;8;;
75342;SDS011;63936;51.006;13.764;2023-04-08T00:04:03;16;;;9;;
75342;SDS011;63936;51.006;13.764;2023-04-08T00:06:03;14;;;8;;
75342;SDS011;63936;51.006;13.764;2023-04-08T00:08:04;13;;;8;;
75342;SDS011;63936;51.006;13.764;2023-04-08T00:10:14;15;;;7;;
75342;SDS011;63936;51.006;13.764;2023-04-08T00:12:01;14;;;8;;
75342;SDS011;63936;51.006;13.764;2023-04-08T00:14:02;12;;;7;;
75342;SDS011;63936;51.006;13.764;2023-04-08T00:16:02;12;;;7;;
75342;SDS011;63936;51.006;13.764;2023-04-08T00:18:02;15;;;8;;
75342;SDS011;63936;51.006;13.764;2023-04-08T00:20:04;14;;;8;;
75342;SDS011;63936;51.006;13.764;2023-04-08T00:22:02;14;;;7;;
75342;SDS011;63936;51.006;13.764;2023-04-08T00:24:02;13;;;8;;
75342;SDS011;63936;51.006;13.764;2023-04-08T00:26:02;14;;;7;;
75342;SDS011;63936;51.006;13.764;2023-04-08T00:28:01;17;;;7;;
75342;SDS011;63936;51.006;13.764;2023-04-08T00:30:06;13;;;7;;
75342;SDS011;63936;51.006;13.764;2023-04-08T00:32:02;13;;;7;;
75342;SDS011;63936;51.006;13.764;2023-04-08T00:34:03;12;;;7;;
75342;SDS011;63936;51.006;13.764;2023-04-08T00:36:03;13;;;7;;
75342;SDS011;63936;51.006;13.764;2023-04-08T00:38:04;15;;;8;;
75342;SDS011;63936;51.006;13.764;2023-04-08T00:40:08;16;;;9;;
75342;SDS011;63936;51.006;13.764;2023-04-08T00:42:04;14;;;7;;
75342;SDS011;63936;51.006;13.764;2023-04-08T00:44:04;14;;;7;;
75342;SDS011;63936;51.006;13.764;2023-04-08T00:46:03;14;;;7;;
75342;SDS011;63936;51.006;13.764;2023-04-08T00:48:03;13;;;7;;
75342;SDS011;63936;51.006;13.764;2023-04-08T00:50:12;13;;;7;;
75342;SDS011;63936;51.006;13.764;2023-04-08T00:52:04;14;;;7;;
75342;SDS011;63936;51.006;13.764;2023-04-08T00:54:03;13;;;7;;
75342;SDS011;63936;51.006;13.764;2023-04-08T00:56:03;14;;;8;;
75342;SDS011;63936;51.006;13.764;2023-04-08T00:58:03;16;;;7;;
75342;SDS011;63936;51.006;13.764;2023-04-08T01:00:06;16;;;8;;
75342;SDS011;63936;51.006;13.764;2023-04-08T01:02:07;14;;;8;;
75342;SDS011;63936;51.006;13.764;2023-04-08T01:04:05;14;;;8;;
75342;SDS011;63936;51.006;13.764;2023-04-08T01:06:06;14;;;8;;
75342;SDS011;63936;51.006;13.764;2023-04-08T01:08:04;15;;;8;;
75342;SDS011;63936;51.006;13.764;2023-04-08T01:10:06;15;;;7;;
75342;SDS011;63936;51.006;13.764;2023-04-08T01:12:06;14;;;8;;
75342;SDS011;63936;51.006;13.764;2023-04-08T01:14:02;15;;;8;;
75342;SDS011;63936;51.006;13.764;2023-04-08T01:16:02;17;;;7;;
75342;SDS011;63936;51.006;13.764;2023-04-08T01:18:05;15;;;7;;
75342;SDS011;63936;51.006;13.764;2023-04-08T01:20:04;15;;;7;;
75342;SDS011;63936;51.006;13.764;2023-04-08T01:22:04;14;;;7;;
75342;SDS011;63936;51.006;13.764;2023-04-08T01:24:04;16;;;7;;
75342;SDS011;63936;51.006;13.764;2023-04-08T01:26:02;15;;;7;;
75342;SDS011;63936;51.006;13.764;2023-04-08T01:28:03;15;;;7;;
75342;SDS011;63936;51.006;13.764;2023-04-08T01:30:03;14;;;6;;
75342;SDS011;63936;51.006;13.764;2023-04-08T01:32:01;15;;;7;;
75342;SDS011;63936;51.006;13.764;2023-04-08T01:34:01;14;;;6;;
75342;SDS011;63936;51.006;13.764;2023-04-08T01:36:01;15;;;7;;
75342;SDS011;63936;51.006;13.764;2023-04-08T01:38:01;15;;;6;;
75342;SDS011;63936;51.006;13.764;2023-04-08T01:40:02;15;;;7;;
75342;SDS011;63936;51.006;13.764;2023-04-08T01:42:01;13;;;6;;
75342;SDS011;63936;51.006;13.764;2023-04-08T01:44:01;13;;;6;;
75342;SDS011;63936;51.006;13.764;2023-04-08T01:46:01;15;;;7;;
75342;SDS011;63936;51.006;13.764;2023-04-08T01:48:01;15;;;7;;
75342;SDS011;63936;51.006;13.764;2023-04-08T01:50:02;16;;;6;;
75342;SDS011;63936;51.006;13.764;2023-04-08T01:52:01;14;;;7;;
75342;SDS011;63936;51.006;13.764;2023-04-08T01:54:01;13;;;6;;
75342;SDS011;63936;51.006;13.764;2023-04-08T01:56:02;15;;;7;;
75342;SDS011;63936;51.006;13.764;2023-04-08T01:58:01;14;;;6;;
75342;SDS011;63936;51.006;13.764;2023-04-08T02:00:04;15;;;7;;
75342;SDS011;63936;51.006;13.764;2023-04-08T02:02:01;15;;;7;;
75342;SDS011;63936;51.006;13.764;2023-04-08T02:04:01;14;;;7;;
75342;SDS011;63936;51.006;13.764;2023-04-08T02:06:02;12;;;6;;
75342;SDS011;63936;51.006;13.764;2023-04-08T02:08:02;12;;;6;;
75342;SDS011;63936;51.006;13.764;2023-04-08T02:10:04;14;;;6;;
75342;SDS011;63936;51.006;13.764;2023-04-08T02:12:01;14;;;6;;
75342;SDS011;63936;51.006;13.764;2023-04-08T02:14:01;13;;;6;;
75342;SDS011;63936;51.006;13.764;2023-04-08T02:16:02;14;;;6;;
75342;SDS011;63936;51.006;13.764;2023-04-08T02:18:04;13;;;6;;
75342;SDS011;63936;51.006;13.764;2023-04-08T02:20:03;15;;;6;;
75342;SDS011;63936;51.006;13.764;2023-04-08T02:22:04;18;;;7;;
75342;SDS011;63936;51.006;13.764;2023-04-08T02:24:02;15;;;7;;
75342;SDS011;63936;51.006;13.764;2023-04-08T02:26:02;13;;;6;;
75342;SDS011;63936;51.006;13.764;2023-04-08T02:28:02;13;;;6;;
75342;SDS011;63936;51.006;13.764;2023-04-08T02:30:03;13;;;6;;
75342;SDS011;63936;51.006;13.764;2023-04-08T02:32:01;13;;;6;;
75342;SDS011;63936;51.006;13.764;2023-04-08T02:34:01;13;;;6;;
75342;SDS011;63936;51.006;13.764;2023-04-08T02:36:01;13;;;6;;
75342;SDS011;63936;51.006;13.764;2023-04-08T02:38:01;13;;;6;;
75342;SDS011;63936;51.006;13.764;2023-04-08T02:40:02;13;;;6;;
75342;SDS011;63936;51.006;13.764;2023-04-08T02:42:01;11;;;5;;
75342;SDS011;63936;51.006;13.764;2023-04-08T02:44:01;13;;;6;;
75342;SDS011;63936;51.006;13.764;2023-04-08T02:46:01;13;;;5;;
75342;SDS011;63936;51.006;13.764;2023-04-08T02:48:01;14;;;6;;
75342;SDS011;63936;51.006;13.764;2023-04-08T02:50:02;14;;;6;;
75342;SDS011;63936;51.006;13.764;2023-04-08T02:52:02;12;;;5;;
75342;SDS011;63936;51.006;13.764;2023-04-08T02:54:01;12;;;5;;
75342;SDS011;63936;51.006;13.764;2023-04-08T02:56:01;13;;;5;;
75342;SDS011;63936;51.006;13.764;2023-04-08T02:58:01;12;;;5;;
75342;SDS011;63936;51.006;13.764;2023-04-08T03:00:03;12;;;5;;
75342;SDS011;63936;51.006;13.764;2023-04-08T03:02:02;12;;;5;;
75342;SDS011;63936;51.006;13.764;2023-04-08T03:04:02;12;;;6;;
75342;SDS011;63936;51.006;13.764;2023-04-08T03:06:02;12;;;6;;
75342;SDS011;63936;51.006;13.764;2023-04-08T03:08:01;11;;;6;;
75342;SDS011;63936;51.006;13.764;2023-04-08T03:10:06;10;;;5;;
75342;SDS011;63936;51.006;13.764;2023-04-08T03:12:01;10;;;5;;
75342;SDS011;63936;51.006;13.764;2023-04-08T03:14:01;10;;;5;;
75342;SDS011;63936;51.006;13.764;2023-04-08T03:16:01;11;;;5;;
75342;SDS011;63936;51.006;13.764;2023-04-08T03:18:02;12;;;5;;
75342;SDS011;63936;51.006;13.764;2023-04-08T03:20:03;11;;;5;;
75342;SDS011;63936;51.006;13.764;2023-04-08T03:22:02;10;;;5;;
75342;SDS011;63936;51.006;13.764;2023-04-08T03:24:02;9;;;4;;
75342;SDS011;63936;51.006;13.764;2023-04-08T03:26:01;10;;;5;;
75342;SDS011;63936;51.006;13.764;2023-04-08T03:28:01;13;;;6;;
75342;SDS011;63936;51.006;13.764;2023-04-08T03:30:03;11;;;5;;
75342;SDS011;63936;51.006;13.764;2023-04-08T03:32:01;10;;;4;;
75342;SDS011;63936;51.006;13.764;2023-04-08T03:34:01;10;;;4;;
75342;SDS011;63936;51.006;13.764;2023-04-08T03:36:02;10;;;5;;
75342;SDS011;63936;51.006;13.764;2023-04-08T03:38:02;11;;;5;;
75342;SDS011;63936;51.006;13.764;2023-04-08T03:40:01;11;;;5;;
75342;SDS011;63936;51.006;13.764;2023-04-08T03:42:01;11;;;5;;
75342;SDS011;63936;51.006;13.764;2023-04-08T03:44:01;11;;;5;;
75342;SDS011;63936;51.006;13.764;2023-04-08T03:46:01;11;;;5;;
75342;SDS011;63936;51.006;13.764;2023-04-08T03:48:01;11;;;5;;
75342;SDS011;63936;51.006;13.764;2023-04-08T03:50:02;11;;;5;;
75342;SDS011;63936;51.006;13.764;2023-04-08T03:52:01;11;;;5;;
75342;SDS011;63936;51.006;13.764;2023-04-08T03:54:01;9;;;5;;
75342;SDS011;63936;51.006;13.764;2023-04-08T03:56:01;9;;;4;;
75342;SDS011;63936;51.006;13.764;2023-04-08T03:58:01;10;;;5;;
75342;SDS011;63936;51.006;13.764;2023-04-08T04:00:02;10;;;4;;
75342;SDS011;63936;51.006;13.764;2023-04-08T04:02:02;9;;;5;;
75342;SDS011;63936;51.006;13.764;2023-04-08T04:04:02;12;;;5;;
75342;SDS011;63936;51.006;13.764;2023-04-08T04:06:03;11;;;5;;
75342;SDS011;63936;51.006;13.764;2023-04-08T04:08:02;10;;;4;;
75342;SDS011;63936;51.006;13.764;2023-04-08T04:10:03;9;;;4;;
75342;SDS011;63936;51.006;13.764;2023-04-08T04:12:02;10;;;5;;
75342;SDS011;63936;51.006;13.764;2023-04-08T04:14:02;12;;;5;;
75342;SDS011;63936;51.006;13.764;2023-04-08T04:16:01;11;;;5;;
75342;SDS011;63936;51.006;13.764;2023-04-08T04:18:01;9;;;5;;
75342;SDS011;63936;51.006;13.764;2023-04-08T04:20:03;11;;;5;;
75342;SDS011;63936;51.006;13.764;2023-04-08T04:22:03;11;;;5;;
75342;SDS011;63936;51.006;13.764;2023-04-08T04:24:03;9;;;4;;
75342;SDS011;63936;51.006;13.764;2023-04-08T04:26:01;9;;;4;;
75342;SDS011;63936;51.006;13.764;2023-04-08T04:28:01;9;;;4;;
75342;SDS011;63936;51.006;13.764;2023-04-08T04:30:03;10;;;4;;
75342;SDS011;63936;51.006;13.764;2023-04-08T04:32:02;8;;;4;;
75342;SDS011;63936;51.006;13.764;2023-04-08T04:34:02;9;;;4;;
75342;SDS011;63936;51.006;13.764;2023-04-08T04:36:01;9;;;4;;
75342;SDS011;63936;51.006;13.764;2023-04-08T04:38:02;9;;;4;;
75342;SDS011;63936;51.006;13.764;2023-04-08T04:40:02;9;;;4;;
75342;SDS011;63936;51.006;13.764;2023-04-08T04:42:02;9;;;4;;
75342;SDS011;63936;51.006;13.764;2023-04-08T04:44:02;9;;;5;;
75342;SDS011;63936;51.006;13.764;2023-04-08T04:46:02;10;;;5;;
75342;SDS011;63936;51.006;13.764;2023-04-08T04:48:02;9;;;4;;
75342;SDS011;63936;51.006;13.764;2023-04-08T04:50:02;9;;;4;;
75342;SDS011;63936;51.006;13.764;2023-04-08T04:52:01;10;;;5;;
75342;SDS011;63936;51.006;13.764;2023-04-08T04:54:02;12;;;5;;
75342;SDS011;63936;51.006;13.764;2023-04-08T04:56:01;12;;;5;;
75342;SDS011;63936;51.006;13.764;2023-04-08T04:58:01;13;;;5;;
75342;SDS011;63936;51.006;13.764;2023-04-08T05:00:03;11;;;5;;
75342;SDS011;63936;51.006;13.764;2023-04-08T05:02:01;10;;;5;;
75342;SDS011;63936;51.006;13.764;2023-04-08T05:04:01;12;;;4;;
75342;SDS011;63936;51.006;13.764;2023-04-08T05:06:01;12;;;4;;
75342;SDS011;63936;51.006;13.764;2023-04-08T05:08:02;9;;;4;;
75342;SDS011;63936;51.006;13.764;2023-04-08T05:10:03;14;;;5;;
75342;SDS011;63936;51.006;13.764;2023-04-08T05:12:02;11;;;5;;
75342;SDS011;63936;51.006;13.764;2023-04-08T05:14:02;12;;;5;;
75342;SDS011;63936;51.006;13.764;2023-04-08T05:16:01;11;;;5;;
75342;SDS011;63936;51.006;13.764;2023-04-08T05:18:02;86;;;8;;
75342;SDS011;63936;51.006;13.764;2023-04-08T05:20:05;121;;;8;;
75342;SDS011;63936;51.006;13.764;2023-04-08T05:22:01;48;;;6;;
75342;SDS011;63936;51.006;13.764;2023-04-08T05:24:01;10;;;5;;
75342;SDS011;63936;51.006;13.764;2023-04-08T05:26:01;17;;;5;;
75342;SDS011;63936;51.006;13.764;2023-04-08T05:28:01;12;;;5;;
75342;SDS011;63936;51.006;13.764;2023-04-08T05:30:03;19;;;5;;
75342;SDS011;63936;51.006;13.764;2023-04-08T05:32:02;19;;;5;;
75342;SDS011;63936;51.006;13.764;2023-04-08T05:34:02;14;;;5;;
75342;SDS011;63936;51.006;13.764;2023-04-08T05:36:02;11;;;4;;
75342;SDS011;63936;51.006;13.764;2023-04-08T05:38:02;11;;;5;;
75342;SDS011;63936;51.006;13.764;2023-04-08T05:40:02;10;;;5;;
75342;SDS011;63936;51.006;13.764;2023-04-08T05:42:01;15;;;5;;
75342;SDS011;63936;51.006;13.764;2023-04-08T05:44:02;13;;;5;;
75342;SDS011;63936;51.006;13.764;2023-04-08T05:46:05;12;;;5;;
75342;SDS011;63936;51.006;13.764;2023-04-08T05:48:03;11;;;5;;
75342;SDS011;63936;51.006;13.764;2023-04-08T05:50:02;13;;;6;;
75342;SDS011;63936;51.006;13.764;2023-04-08T05:52:02;13;;;5;;
75342;SDS011;63936;51.006;13.764;2023-04-08T05:54:01;12;;;5;;
75342;SDS011;63936;51.006;13.764;2023-04-08T05:56:01;15;;;5;;
75342;SDS011;63936;51.006;13.764;2023-04-08T05:58:01;13;;;5;;
75342;SDS011;63936;51.006;13.764;2023-04-08T06:00:08;12;;;5;;
75342;SDS011;63936;51.006;13.764;2023-04-08T06:02:02;11;;;5;;
75342;SDS011;63936;51.006;13.764;2023-04-08T06:04:02;12;;;5;;
75342;SDS011;63936;51.006;13.764;2023-04-08T06:06:01;11;;;5;;
75342;SDS011;63936;51.006;13.764;2023-04-08T06:08:01;10;;;5;;
75342;SDS011;63936;51.006;13.764;2023-04-08T06:10:02;13;;;5;;
75342;SDS011;63936;51.006;13.764;2023-04-08T06:12:01;12;;;5;;
75342;SDS011;63936;51.006;13.764;2023-04-08T06:14:01;11;;;5;;
75342;SDS011;63936;51.006;13.764;2023-04-08T06:16:08;11;;;5;;
75342;SDS011;63936;51.006;13.764;2023-04-08T06:18:01;11;;;5;;
75342;SDS011;63936;51.006;13.764;2023-04-08T06:20:01;11;;;5;;
75342;SDS011;63936;51.006;13.764;2023-04-08T06:22:01;12;;;5;;
75342;SDS011;63936;51.006;13.764;2023-04-08T06:24:01;12;;;5;;
75342;SDS011;63936;51.006;13.764;2023-04-08T06:26:01;13;;;6;;
75342;SDS011;63936;51.006;13.764;2023-04-08T06:28:02;12;;;5;;
75342;SDS011;63936;51.006;13.764;2023-04-08T06:30:16;15;;;5;;
75342;SDS011;63936;51.006;13.764;2023-04-08T06:32:02;13;;;6;;
75342;SDS011;63936;51.006;13.764;2023-04-08T06:34:01;12;;;6;;
75342;SDS011;63936;51.006;13.764;2023-04-08T06:36:01;11;;;5;;
75342;SDS011;63936;51.006;13.764;2023-04-08T06:38:01;12;;;5;;
75342;SDS011;63936;51.006;13.764;2023-04-08T06:40:03;11;;;5;;
75342;SDS011;63936;51.006;13.764;2023-04-08T06:42:01;13;;;6;;
75342;SDS011;63936;51.006;13.764;2023-04-08T06:44:01;11;;;6;;
75342;SDS011;63936;51.006;13.764;2023-04-08T06:46:01;11;;;6;;
75342;SDS011;63936;51.006;13.764;2023-04-08T06:48:01;12;;;6;;
75342;SDS011;63936;51.006;13.764;2023-04-08T06:50:01;19;;;6;;
75342;SDS011;63936;51.006;13.764;2023-04-08T06:52:01;18;;;7;;
75342;SDS011;63936;51.006;13.764;2023-04-08T06:54:01;18;;;7;;
75342;SDS011;63936;51.006;13.764;2023-04-08T06:56:01;14;;;6;;
75342;SDS011;63936;51.006;13.764;2023-04-08T06:58:01;14;;;6;;
75342;SDS011;63936;51.006;13.764;2023-04-08T07:00:03;13;;;7;;
75342;SDS011;63936;51.006;13.764;2023-04-08T07:02:01;14;;;7;;
75342;SDS011;63936;51.006;13.764;2023-04-08T07:04:01;11;;;6;;
75342;SDS011;63936;51.006;13.764;2023-04-08T07:06:01;14;;;7;;
75342;SDS011;63936;51.006;13.764;2023-04-08T07:08:01;14;;;6;;
75342;SDS011;63936;51.006;13.764;2023-04-08T07:10:01;13;;;6;;
75342;SDS011;63936;51.006;13.764;2023-04-08T07:12:01;14;;;6;;
75342;SDS011;63936;51.006;13.764;2023-04-08T07:14:01;14;;;6;;
75342;SDS011;63936;51.006;13.764;2023-04-08T07:16:01;13;;;6;;
75342;SDS011;63936;51.006;13.764;2023-04-08T07:18:01;14;;;7;;
75342;SDS011;63936;51.006;13.764;2023-04-08T07:20:02;13;;;7;;
75342;SDS011;63936;51.006;13.764;2023-04-08T07:22:01;13;;;7;;
75342;SDS011;63936;51.006;13.764;2023-04-08T07:24:01;11;;;6;;
75342;SDS011;63936;51.006;13.764;2023-04-08T07:26:02;14;;;7;;
75342;SDS011;63936;51.006;13.764;2023-04-08T07:28:02;13;;;7;;
75342;SDS011;63936;51.006;13.764;2023-04-08T07:30:03;12;;;7;;
75342;SDS011;63936;51.006;13.764;2023-04-08T07:32:01;13;;;7;;
75342;SDS011;63936;51.006;13.764;2023-04-08T07:34:01;12;;;7;;
75342;SDS011;63936;51.006;13.764;2023-04-08T07:36:01;11;;;6;;
75342;SDS011;63936;51.006;13.764;2023-04-08T07:38:01;12;;;7;;
75342;SDS011;63936;51.006;13.764;2023-04-08T07:40:03;12;;;7;;
75342;SDS011;63936;51.006;13.764;2023-04-08T07:42:01;14;;;7;;
75342;SDS011;63936;51.006;13.764;2023-04-08T07:44:01;15;;;8;;
75342;SDS011;63936;51.006;13.764;2023-04-08T07:46:02;16;;;8;;
75342;SDS011;63936;51.006;13.764;2023-04-08T07:48:01;15;;;8;;
75342;SDS011;63936;51.006;13.764;2023-04-08T07:50:03;16;;;8;;
75342;SDS011;63936;51.006;13.764;2023-04-08T07:52:01;14;;;7;;
75342;SDS011;63936;51.006;13.764;2023-04-08T07:54:01;14;;;7;;
75342;SDS011;63936;51.006;13.764;2023-04-08T07:56:01;17;;;9;;
75342;SDS011;63936;51.006;13.764;2023-04-08T07:58:01;19;;;11;;
75342;SDS011;63936;51.006;13.764;2023-04-08T08:00:02;14;;;8;;
75342;SDS011;63936;51.006;13.764;2023-04-08T08:02:01;14;;;8;;
75342;SDS011;63936;51.006;13.764;2023-04-08T08:04:01;16;;;9;;
75342;SDS011;63936;51.006;13.764;2023-04-08T08:06:01;15;;;8;;
75342;SDS011;63936;51.006;13.764;2023-04-08T08:08:02;11;;;6;;
75342;SDS011;63936;51.006;13.764;2023-04-08T08:10:03;13;;;6;;
75342;SDS011;63936;51.006;13.764;2023-04-08T08:12:01;12;;;6;;
75342;SDS011;63936;51.006;13.764;2023-04-08T08:14:01;12;;;7;;
75342;SDS011;63936;51.006;13.764;2023-04-08T08:16:01;12;;;7;;
75342;SDS011;63936;51.006;13.764;2023-04-08T08:18:02;12;;;7;;
75342;SDS011;63936;51.006;13.764;2023-04-08T08:20:03;11;;;6;;
75342;SDS011;63936;51.006;13.764;2023-04-08T08:22:01;12;;;7;;
75342;SDS011;63936;51.006;13.764;2023-04-08T08:24:01;12;;;7;;
75342;SDS011;63936;51.006;13.764;2023-04-08T08:26:01;12;;;7;;
75342;SDS011;63936;51.006;13.764;2023-04-08T08:28:01;12;;;6;;
75342;SDS011;63936;51.006;13.764;2023-04-08T08:30:02;13;;;6;;
75342;SDS011;63936;51.006;13.764;2023-04-08T08:32:01;12;;;7;;
75342;SDS011;63936;51.006;13.764;2023-04-08T08:34:01;12;;;6;;
75342;SDS011;63936;51.006;13.764;2023-04-08T08:36:01;10;;;6;;
75342;SDS011;63936;51.006;13.764;2023-04-08T08:38:01;11;;;7;;
75342;SDS011;63936;51.006;13.764;2023-04-08T08:40:02;10;;;6;;
75342;SDS011;63936;51.006;13.764;2023-04-08T08:42:01;10;;;6;;
75342;SDS011;63936;51.006;13.764;2023-04-08T08:44:01;10;;;6;;
75342;SDS011;63936;51.006;13.764;2023-04-08T08:46:01;11;;;6;;
75342;SDS011;63936;51.006;13.764;2023-04-08T08:48:01;11;;;6;;
75342;SDS011;63936;51.006;13.764;2023-04-08T08:50:03;11;;;6;;
75342;SDS011;63936;51.006;13.764;2023-04-08T08:52:02;13;;;7;;
75342;SDS011;63936;51.006;13.764;2023-04-08T08:54:02;14;;;7;;
75342;SDS011;63936;51.006;13.764;2023-04-08T08:56:02;14;;;8;;
75342;SDS011;63936;51.006;13.764;2023-04-08T08:58:02;12;;;7;;
75342;SDS011;63936;51.006;13.764;2023-04-08T09:00:01;13;;;8;;
75342;SDS011;63936;51.006;13.764;2023-04-08T09:02:01;12;;;7;;
75342;SDS011;63936;51.006;13.764;2023-04-08T09:04:09;11;;;6;;
75342;SDS011;63936;51.006;13.764;2023-04-08T09:06:01;11;;;6;;
75342;SDS011;63936;51.006;13.764;2023-04-08T09:08:01;10;;;6;;
75342;SDS011;63936;51.006;13.764;2023-04-08T09:10:03;10;;;7;;
75342;SDS011;63936;51.006;13.764;2023-04-08T09:12:02;10;;;6;;
75342;SDS011;63936;51.006;13.764;2023-04-08T09:14:02;10;;;6;;
75342;SDS011;63936;51.006;13.764;2023-04-08T09:16:02;11;;;7;;
75342;SDS011;63936;51.006;13.764;2023-04-08T09:18:02;12;;;7;;
75342;SDS011;63936;51.006;13.764;2023-04-08T09:20:03;11;;;6;;
75342;SDS011;63936;51.006;13.764;2023-04-08T09:22:04;11;;;7;;
75342;SDS011;63936;51.006;13.764;2023-04-08T09:24:01;11;;;6;;
75342;SDS011;63936;51.006;13.764;2023-04-08T09:26:03;11;;;6;;
75342;SDS011;63936;51.006;13.764;2023-04-08T09:28:01;12;;;7;;
75342;SDS011;63936;51.006;13.764;2023-04-08T09:30:17;13;;;7;;
75342;SDS011;63936;51.006;13.764;2023-04-08T09:32:01;11;;;6;;
75342;SDS011;63936;51.006;13.764;2023-04-08T09:34:08;12;;;8;;
75342;SDS011;63936;51.006;13.764;2023-04-08T09:36:02;12;;;7;;
75342;SDS011;63936;51.006;13.764;2023-04-08T09:38:02;12;;;7;;
75342;SDS011;63936;51.006;13.764;2023-04-08T09:40:01;10;;;6;;
75342;SDS011;63936;51.006;13.764;2023-04-08T09:42:01;10;;;7;;
75342;SDS011;63936;51.006;13.764;2023-04-08T09:44:02;13;;;7;;
75342;SDS011;63936;51.006;13.764;2023-04-08T09:46:02;12;;;7;;
75342;SDS011;63936;51.006;13.764;2023-04-08T09:48:03;11;;;8;;
75342;SDS011;63936;51.006;13.764;2023-04-08T09:50:02;12;;;8;;
75342;SDS011;63936;51.006;13.764;2023-04-08T09:52:04;13;;;8;;
75342;SDS011;63936;51.006;13.764;2023-04-08T09:54:02;12;;;8;;
75342;SDS011;63936;51.006;13.764;2023-04-08T09:56:01;12;;;7;;
75342;SDS011;63936;51.006;13.764;2023-04-08T09:58:02;14;;;9;;
75342;SDS011;63936;51.006;13.764;2023-04-08T10:00:04;14;;;10;;
75342;SDS011;63936;51.006;13.764;2023-04-08T10:02:03;14;;;10;;
75342;SDS011;63936;51.006;13.764;2023-04-08T10:04:01;14;;;10;;
75342;SDS011;63936;51.006;13.764;2023-04-08T10:06:02;14;;;10;;
75342;SDS011;63936;51.006;13.764;2023-04-08T10:08:01;14;;;9;;
75342;SDS011;63936;51.006;13.764;2023-04-08T10:10:02;14;;;9;;
75342;SDS011;63936;51.006;13.764;2023-04-08T10:12:01;13;;;7;;
75342;SDS011;63936;51.006;13.764;2023-04-08T10:14:01;15;;;10;;
75342;SDS011;63936;51.006;13.764;2023-04-08T10:16:16;13;;;9;;
75342;SDS011;63936;51.006;13.764;2023-04-08T10:18:29;14;;;10;;
75342;SDS011;63936;51.006;13.764;2023-04-08T10:20:02;16;;;9;;
75342;SDS011;63936;51.006;13.764;2023-04-08T10:22:01;15;;;10;;
75342;SDS011;63936;51.006;13.764;2023-04-08T10:24:01;15;;;10;;
75342;SDS011;63936;51.006;13.764;2023-04-08T10:26:02;14;;;9;;
75342;SDS011;63936;51.006;13.764;2023-04-08T10:28:22;14;;;9;;
75342;SDS011;63936;51.006;13.764;2023-04-08T10:30:02;14;;;9;;
75342;SDS011;63936;51.006;13.764;2023-04-08T10:32:01;15;;;10;;
75342;SDS011;63936;51.006;13.764;2023-04-08T10:34:12;15;;;9;;
75342;SDS011;63936;51.006;13.764;2023-04-08T10:36:07;14;;;9;;
75342;SDS011;63936;51.006;13.764;2023-04-08T10:38:02;16;;;11;;
75342;SDS011;63936;51.006;13.764;2023-04-08T10:40:03;15;;;10;;
75342;SDS011;63936;51.006;13.764;2023-04-08T10:42:01;15;;;8;;
75342;SDS011;63936;51.006;13.764;2023-04-08T10:44:02;15;;;8;;
75342;SDS011;63936;51.006;13.764;2023-04-08T10:46:01;14;;;9;;
75342;SDS011;63936;51.006;13.764;2023-04-08T10:48:16;14;;;9;;
75342;SDS011;63936;51.006;13.764;2023-04-08T10:50:10;12;;;8;;
75342;SDS011;63936;51.006;13.764;2023-04-08T10:52:05;12;;;8;;
75342;SDS011;63936;51.006;13.764;2023-04-08T10:54:04;14;;;6;;
75342;SDS011;63936;51.006;13.764;2023-04-08T10:56:02;13;;;7;;
75342;SDS011;63936;51.006;13.764;2023-04-08T10:58:04;11;;;6;;
75342;SDS011;63936;51.006;13.764;2023-04-08T11:00:02;11;;;7;;
75342;SDS011;63936;51.006;13.764;2023-04-08T11:02:01;10;;;6;;
75342;SDS011;63936;51.006;13.764;2023-04-08T11:04:05;10;;;7;;
75342;SDS011;63936;51.006;13.764;2023-04-08T11:06:01;12;;;6;;
75342;SDS011;63936;51.006;13.764;2023-04-08T11:08:01;12;;;7;;
75342;SDS011;63936;51.006;13.764;2023-04-08T11:10:02;12;;;8;;
75342;SDS011;63936;51.006;13.764;2023-04-08T11:12:01;11;;;7;;
75342;SDS011;63936;51.006;13.764;2023-04-08T11:14:01;12;;;8;;
75342;SDS011;63936;51.006;13.764;2023-04-08T11:16:02;12;;;8;;
75342;SDS011;63936;51.006;13.764;2023-04-08T11:18:01;12;;;7;;
75342;SDS011;63936;51.006;13.764;2023-04-08T11:20:01;12;;;8;;
75342;SDS011;63936;51.006;13.764;2023-04-08T11:22:01;13;;;8;;
75342;SDS011;63936;51.006;13.764;2023-04-08T11:24:05;16;;;10;;
75342;SDS011;63936;51.006;13.764;2023-04-08T11:26:01;17;;;10;;
75342;SDS011;63936;51.006;13.764;2023-04-08T11:28:01;16;;;10;;
75342;SDS011;63936;51.006;13.764;2023-04-08T11:30:03;14;;;9;;
75342;SDS011;63936;51.006;13.764;2023-04-08T11:32:02;14;;;9;;
75342;SDS011;63936;51.006;13.764;2023-04-08T11:34:01;15;;;10;;
75342;SDS011;63936;51.006;13.764;2023-04-08T11:36:01;14;;;10;;
75342;SDS011;63936;51.006;13.764;2023-04-08T11:38:03;15;;;9;;
75342;SDS011;63936;51.006;13.764;2023-04-08T11:40:05;15;;;9;;
75342;SDS011;63936;51.006;13.764;2023-04-08T11:42:02;14;;;9;;
75342;SDS011;63936;51.006;13.764;2023-04-08T11:44:02;15;;;9;;
75342;SDS011;63936;51.006;13.764;2023-04-08T11:46:07;15;;;9;;
75342;SDS011;63936;51.006;13.764;2023-04-08T11:48:06;14;;;9;;
75342;SDS011;63936;51.006;13.764;2023-04-08T11:50:02;14;;;9;;
75342;SDS011;63936;51.006;13.764;2023-04-08T11:52:01;14;;;10;;
75342;SDS011;63936;51.006;13.764;2023-04-08T11:54:03;13;;;9;;
75342;SDS011;63936;51.006;13.764;2023-04-08T11:56:14;13;;;9;;
75342;SDS011;63936;51.006;13.764;2023-04-08T11:58:02;14;;;10;;
75342;SDS011;63936;51.006;13.764;2023-04-08T12:00:03;14;;;10;;
75342;SDS011;63936;51.006;13.764;2023-04-08T12:02:01;16;;;10;;
75342;SDS011;63936;51.006;13.764;2023-04-08T12:04:01;16;;;11;;
75342;SDS011;63936;51.006;13.764;2023-04-08T12:06:01;16;;;10;;
75342;SDS011;63936;51.006;13.764;2023-04-08T12:08:01;16;;;10;;
75342;SDS011;63936;51.006;13.764;2023-04-08T12:10:02;14;;;9;;
75342;SDS011;63936;51.006;13.764;2023-04-08T12:12:01;16;;;10;;
75342;SDS011;63936;51.006;13.764;2023-04-08T12:14:01;17;;;10;;
75342;SDS011;63936;51.006;13.764;2023-04-08T12:16:01;16;;;10;;
75342;SDS011;63936;51.006;13.764;2023-04-08T12:18:01;19;;;9;;
75342;SDS011;63936;51.006;13.764;2023-04-08T12:20:02;18;;;10;;
75342;SDS011;63936;51.006;13.764;2023-04-08T12:22:01;19;;;11;;
75342;SDS011;63936;51.006;13.764;2023-04-08T12:24:01;18;;;11;;
75342;SDS011;63936;51.006;13.764;2023-04-08T12:26:01;18;;;10;;
75342;SDS011;63936;51.006;13.764;2023-04-08T12:28:01;19;;;11;;
75342;SDS011;63936;51.006;13.764;2023-04-08T12:30:02;19;;;11;;
75342;SDS011;63936;51.006;13.764;2023-04-08T12:32:02;18;;;11;;
75342;SDS011;63936;51.006;13.764;2023-04-08T12:34:02;18;;;11;;
75342;SDS011;63936;51.006;13.764;2023-04-08T12:36:01;19;;;12;;
75342;SDS011;63936;51.006;13.764;2023-04-08T12:38:01;20;;;11;;
75342;SDS011;63936;51.006;13.764;2023-04-08T12:40:02;20;;;12;;
75342;SDS011;63936;51.006;13.764;2023-04-08T12:42:01;19;;;12;;
75342;SDS011;63936;51.006;13.764;2023-04-08T12:44:01;20;;;12;;
75342;SDS011;63936;51.006;13.764;2023-04-08T12:46:01;20;;;14;;
75342;SDS011;63936;51.006;13.764;2023-04-08T12:48:01;19;;;14;;